createdAt,value
2023-02-19T00:00:09.157Z,3.05
2023-02-19T00:02:46.467Z,3.10
2023-02-19T00:05:14.452Z,4.22
2023-02-19T00:07:43.236Z,4.60
2023-02-19T00:10:11.136Z,4.57
2023-02-19T00:12:39.160Z,3.38
2023-02-19T00:15:07.492Z,3.80
2023-02-19T00:17:35.367Z,3.85
2023-02-19T00:20:04.764Z,3.70
2023-02-19T00:22:32.686Z,4.25
2023-02-19T00:25:00.653Z,4.55
2023-02-19T00:27:28.624Z,3.00
2023-02-19T00:29:56.502Z,3.05
2023-02-19T00:32:24.388Z,3.42
2023-02-19T00:34:52.313Z,3.33
2023-02-19T00:37:21.579Z,3.70
2023-02-19T00:39:49.778Z,2.00
2023-02-19T00:42:17.683Z,2.47
2023-02-19T00:44:45.589Z,3.55
2023-02-19T00:47:15.558Z,4.40
2023-02-19T00:49:43.454Z,3.40
2023-02-19T00:52:11.413Z,3.90
2023-02-19T00:54:40.734Z,3.00
2023-02-19T00:57:08.647Z,3.85
2023-02-19T00:59:37.055Z,2.60
2023-02-19T01:02:05.305Z,3.70
2023-02-19T01:04:33.218Z,2.53
2023-02-19T01:07:01.190Z,3.45
2023-02-19T01:09:29.311Z,2.95
2023-02-19T01:11:59.030Z,4.07
2023-02-19T01:14:27.251Z,2.78
2023-02-19T01:16:55.175Z,3.83
2023-02-19T01:19:23.180Z,2.83
2023-02-19T01:21:51.227Z,2.75
2023-02-19T01:24:19.205Z,3.15
2023-02-19T01:26:47.176Z,3.67
2023-02-19T01:29:16.537Z,2.85
2023-02-19T01:31:44.690Z,3.10
2023-02-19T01:34:14.808Z,2.40
2023-02-19T01:36:43.137Z,3.63
2023-02-19T01:39:12.074Z,2.92
2023-02-19T01:41:41.753Z,3.08
2023-02-19T01:44:48.183Z,3.13
2023-02-19T01:47:19.757Z,3.40
2023-02-19T01:49:51.730Z,2.88
2023-02-19T01:52:25.645Z,3.38
2023-02-19T01:54:55.415Z,2.40
2023-02-19T01:57:27.459Z,2.92
2023-02-19T01:59:59.500Z,3.10
2023-02-19T02:02:28.781Z,3.35
2023-02-19T02:04:57.235Z,3.38
2023-02-19T02:07:42.534Z,4.75
2023-02-19T02:10:22.810Z,2.92
2023-02-19T02:12:51.974Z,3.20
2023-02-19T02:15:20.609Z,3.45
2023-02-19T02:17:57.528Z,4.53
2023-02-19T02:20:44.631Z,3.78
2023-02-19T02:23:20.962Z,2.70
2023-02-19T02:26:07.476Z,2.50
2023-02-19T02:28:59.669Z,3.85
2023-02-19T02:31:34.120Z,4.05
2023-02-19T02:34:07.001Z,4.28
2023-02-19T02:36:39.018Z,5.60
2023-02-19T02:39:11.875Z,4.40
2023-02-19T02:41:44.412Z,4.70
2023-02-19T02:44:12.728Z,4.95
2023-02-19T02:46:45.847Z,4.50
2023-02-19T02:49:21.352Z,4.32
2023-02-19T02:51:53.723Z,3.70
2023-02-19T02:54:56.263Z,3.22
2023-02-19T02:57:25.031Z,3.45
2023-02-19T02:59:57.368Z,2.15
2023-02-19T03:02:30.321Z,4.18
2023-02-19T03:05:22.069Z,3.30
2023-02-19T03:07:55.849Z,2.28
2023-02-19T03:10:29.884Z,3.35
2023-02-19T03:13:17.757Z,3.40
2023-02-19T03:16:17.534Z,3.28
2023-02-19T03:19:08.466Z,2.10
2023-02-19T03:21:39.211Z,2.38
2023-02-19T03:24:30.590Z,3.50
2023-02-19T03:27:00.814Z,2.40
2023-02-19T03:29:36.477Z,3.00
2023-02-19T03:32:10.941Z,4.03
2023-02-19T03:34:47.320Z,2.67
2023-02-19T03:37:21.694Z,3.70
2023-02-19T03:39:49.857Z,3.97
2023-02-19T03:42:26.673Z,4.47
2023-02-19T03:45:08.790Z,3.70
2023-02-19T03:47:44.625Z,2.63
2023-02-19T03:50:19.118Z,3.70
2023-02-19T03:52:55.168Z,2.63
2023-02-19T03:55:31.120Z,3.28
2023-02-19T03:58:07.014Z,3.50
2023-02-19T04:00:41.625Z,3.47
2023-02-19T04:03:16.979Z,3.63
2023-02-19T04:05:52.038Z,2.53
2023-02-19T04:08:22.804Z,3.38
2023-02-19T04:11:00.013Z,4.70
2023-02-19T04:13:35.393Z,2.63
2023-02-19T04:16:08.556Z,2.40
2023-02-19T04:18:40.785Z,3.10
2023-02-19T04:21:11.529Z,2.80
2023-02-19T04:23:43.258Z,2.20
2023-02-19T04:26:13.184Z,4.60
2023-02-19T04:28:42.924Z,3.42
2023-02-19T04:31:11.991Z,2.10
2023-02-19T04:33:40.131Z,3.33
2023-02-19T04:36:11.879Z,3.85
2023-02-19T04:38:39.809Z,3.55
2023-02-19T04:41:07.743Z,2.40
2023-02-19T04:43:35.693Z,4.10
2023-02-19T04:46:04.033Z,3.60
2023-02-19T04:48:31.994Z,4.28
2023-02-19T04:50:59.889Z,3.92
2023-02-19T04:53:29.208Z,3.20
2023-02-19T04:55:57.065Z,4.75
2023-02-19T04:58:24.975Z,5.43
2023-02-19T05:00:53.841Z,3.00
2023-02-19T05:03:21.835Z,2.83
2023-02-19T05:05:49.772Z,4.13
2023-02-19T05:08:17.614Z,2.80
2023-02-19T05:10:46.882Z,3.85
2023-02-19T05:13:16.861Z,2.70
2023-02-19T05:15:55.723Z,3.97
2023-02-19T05:18:23.763Z,2.58
2023-02-19T05:20:52.231Z,4.85
2023-02-19T05:23:20.896Z,5.20
2023-02-19T05:25:56.518Z,3.65
2023-02-19T05:28:28.747Z,2.72
2023-02-19T05:30:57.555Z,2.50
2023-02-19T05:33:27.264Z,2.85
2023-02-19T05:35:56.403Z,3.75
2023-02-19T05:38:24.951Z,2.40
2023-02-19T05:40:52.949Z,2.58
2023-02-19T05:43:22.272Z,2.95
2023-02-19T05:45:50.181Z,3.05
2023-02-19T05:48:18.118Z,2.63
2023-02-19T05:50:46.045Z,3.60
2023-02-19T05:53:14.021Z,2.50
2023-02-19T05:55:41.906Z,2.78
2023-02-19T05:58:09.839Z,2.65
2023-02-19T06:00:39.093Z,2.85
2023-02-19T06:03:06.971Z,3.40
2023-02-19T06:05:34.910Z,3.85
2023-02-19T06:08:02.814Z,2.55
2023-02-19T06:10:30.843Z,3.03
2023-02-19T06:12:58.777Z,2.50
2023-02-19T06:15:26.628Z,2.50
2023-02-19T06:17:55.853Z,2.55
2023-02-19T06:20:25.987Z,2.45
2023-02-19T06:22:54.189Z,3.17
2023-02-19T06:25:22.319Z,2.75
2023-02-19T06:27:50.256Z,3.15
2023-02-19T06:30:18.276Z,2.85
2023-02-19T06:32:46.239Z,2.30
2023-02-19T06:35:15.598Z,2.58
2023-02-19T06:37:43.456Z,3.25
2023-02-19T06:40:11.740Z,2.38
2023-02-19T06:42:39.754Z,4.32
2023-02-19T06:45:08.178Z,2.20
2023-02-19T06:47:36.291Z,2.22
2023-02-19T06:50:04.317Z,3.17
2023-02-19T06:52:33.619Z,2.38
2023-02-19T06:55:01.641Z,4.30
2023-02-19T06:57:29.573Z,2.28
2023-02-19T06:59:57.477Z,2.05
2023-02-19T07:02:26.230Z,4.10
2023-02-19T07:04:54.212Z,4.00
2023-02-19T07:07:22.126Z,4.40
2023-02-19T07:09:51.370Z,2.78
2023-02-19T07:12:19.504Z,3.05
2023-02-19T07:14:48.013Z,3.10
2023-02-19T07:17:15.982Z,3.50
2023-02-19T07:19:43.915Z,4.80
2023-02-19T07:22:11.881Z,3.47
2023-02-19T07:24:39.822Z,4.13
2023-02-19T07:27:09.127Z,3.78
2023-02-19T07:29:37.064Z,3.28
2023-02-19T07:32:05.480Z,3.33
2023-02-19T07:34:33.410Z,3.47
2023-02-19T07:37:01.282Z,3.88
2023-02-19T07:39:29.337Z,3.00
2023-02-19T07:41:58.639Z,3.47
2023-02-19T07:44:32.466Z,2.10
2023-02-19T07:47:00.406Z,2.17
2023-02-19T07:49:28.711Z,2.75
2023-02-19T07:51:56.606Z,2.47
2023-02-19T07:54:24.488Z,2.45
2023-02-19T07:56:52.389Z,3.47
2023-02-19T07:59:21.543Z,2.45
2023-02-19T08:02:08.449Z,3.08
2023-02-19T08:04:36.722Z,3.40
2023-02-19T08:07:05.368Z,4.32
2023-02-19T08:09:34.310Z,2.08
2023-02-19T08:12:19.695Z,3.45
2023-02-19T08:14:47.576Z,2.63
2023-02-19T08:17:16.931Z,3.75
2023-02-19T08:19:44.897Z,4.32
2023-02-19T08:22:12.770Z,2.92
2023-02-19T08:24:42.964Z,2.38
2023-02-19T08:27:10.929Z,3.33
2023-02-19T08:29:38.880Z,1.52
2023-02-19T08:32:06.871Z,2.80
2023-02-19T08:34:36.961Z,3.25
2023-02-19T08:37:04.816Z,2.10
2023-02-19T08:39:33.613Z,2.95
2023-02-19T08:42:01.582Z,2.42
2023-02-19T08:44:29.736Z,2.05
2023-02-19T08:46:57.713Z,2.92
2023-02-19T08:49:27.866Z,2.47
2023-02-19T08:51:57.152Z,3.17
2023-02-19T08:54:25.050Z,2.70
2023-02-19T08:56:53.057Z,2.65
2023-02-19T08:59:20.951Z,2.30
2023-02-19T09:01:49.090Z,2.22
2023-02-19T09:04:17.092Z,3.65
2023-02-19T09:06:45.099Z,4.10
2023-02-19T09:09:14.417Z,2.30
2023-02-19T09:11:42.892Z,2.47
2023-02-19T09:14:11.004Z,2.70
2023-02-19T09:16:38.952Z,2.10
2023-02-19T09:19:06.837Z,2.72
2023-02-19T09:21:34.776Z,2.10
2023-02-19T09:24:02.673Z,2.72
2023-02-19T09:26:36.028Z,2.80
2023-02-19T09:29:05.595Z,2.75
2023-02-19T09:31:35.270Z,3.50
2023-02-19T09:34:03.323Z,2.88
2023-02-19T09:36:33.384Z,2.97
2023-02-19T09:39:02.101Z,3.92
2023-02-19T09:41:32.496Z,4.68
2023-02-19T09:44:04.322Z,5.72
2023-02-19T09:46:35.657Z,6.60
2023-02-19T09:49:08.056Z,6.32
2023-02-19T09:51:38.960Z,5.93
2023-02-19T09:54:12.267Z,6.70
2023-02-19T09:56:40.294Z,4.78
2023-02-19T09:59:19.381Z,5.10
2023-02-19T10:01:50.393Z,5.75
2023-02-19T10:04:18.430Z,6.18
2023-02-19T10:06:47.534Z,6.53
2023-02-19T10:09:22.585Z,5.97
2023-02-19T10:11:55.523Z,5.35
2023-02-19T10:14:35.616Z,6.13
2023-02-19T10:17:06.999Z,5.25
2023-02-19T10:19:35.592Z,4.70
2023-02-19T10:22:05.267Z,5.03
2023-02-19T10:24:33.299Z,5.13
2023-02-19T10:27:01.260Z,4.90
2023-02-19T10:29:30.549Z,8.40
2023-02-19T10:32:17.079Z,4.53
2023-02-19T10:34:45.228Z,5.57
2023-02-19T10:37:16.711Z,4.07
2023-02-19T10:39:47.617Z,4.55
2023-02-19T10:42:17.629Z,6.85
2023-02-19T10:44:49.449Z,4.60
2023-02-19T10:47:20.188Z,4.07
2023-02-19T10:49:49.628Z,5.45
2023-02-19T10:52:21.793Z,5.45
2023-02-19T10:54:53.278Z,4.57
2023-02-19T10:57:35.050Z,4.75
2023-02-19T11:00:24.215Z,4.32
2023-02-19T11:03:19.381Z,3.72
2023-02-19T11:06:02.389Z,4.20
2023-02-19T11:08:38.709Z,4.35
2023-02-19T11:11:07.573Z,10.65
2023-02-19T11:13:37.983Z,33.45
2023-02-19T11:16:07.740Z,55.15
2023-02-19T11:18:36.096Z,38.17
2023-02-19T11:21:10.795Z,38.20
2023-02-19T11:23:45.890Z,42.35
2023-02-19T11:26:19.752Z,51.20
2023-02-19T11:28:59.289Z,60.20
2023-02-19T11:31:32.030Z,56.05
2023-02-19T11:34:01.338Z,59.35
2023-02-19T11:36:32.347Z,53.20
2023-02-19T11:39:04.178Z,56.58
2023-02-19T11:41:57.274Z,58.67
2023-02-19T11:44:36.232Z,48.65
2023-02-19T11:47:30.347Z,54.63
2023-02-19T11:50:07.514Z,52.22
2023-02-19T11:52:39.866Z,43.28
2023-02-19T11:55:16.174Z,44.35
2023-02-19T11:57:47.730Z,43.50
2023-02-19T12:00:24.784Z,47.78
2023-02-19T12:03:38.053Z,45.05
2023-02-19T12:06:20.485Z,42.25
2023-02-19T12:09:19.924Z,45.10
2023-02-19T12:12:06.378Z,42.58
2023-02-19T12:15:03.708Z,35.30
2023-02-19T12:17:48.932Z,42.97
2023-02-19T12:20:31.713Z,35.90
2023-02-19T12:23:20.096Z,45.30
2023-02-19T12:25:58.561Z,34.92
2023-02-19T12:28:48.949Z,34.35
2023-02-19T12:31:49.442Z,41.67
2023-02-19T12:34:38.552Z,35.67
2023-02-19T12:37:21.958Z,36.65
2023-02-19T12:40:07.313Z,34.97
2023-02-19T12:42:51.251Z,38.10
2023-02-19T12:45:22.270Z,36.10
2023-02-19T12:47:58.578Z,32.85
2023-02-19T12:50:29.845Z,33.95
2023-02-19T12:53:02.282Z,38.10
2023-02-19T12:55:36.836Z,34.67
2023-02-19T12:58:11.583Z,33.03
2023-02-19T13:00:43.541Z,37.85
2023-02-19T13:03:20.791Z,32.60
2023-02-19T13:05:54.647Z,32.65
2023-02-19T13:08:33.886Z,29.27
2023-02-19T13:11:07.521Z,34.28
2023-02-19T13:13:41.872Z,32.35
2023-02-19T13:16:15.501Z,31.80
2023-02-19T13:18:47.883Z,24.23
2023-02-19T13:21:39.663Z,27.27
2023-02-19T13:24:11.575Z,30.88
2023-02-19T13:27:11.341Z,26.48
2023-02-19T13:29:55.426Z,23.92
2023-02-19T13:32:50.287Z,25.35
2023-02-19T13:35:29.335Z,26.40
2023-02-19T13:38:03.040Z,22.25
2023-02-19T13:40:35.490Z,22.05
2023-02-19T13:43:05.224Z,25.23
2023-02-19T13:45:36.493Z,22.25
2023-02-19T13:48:16.865Z,23.70
2023-02-19T13:50:44.839Z,30.73
2023-02-19T13:53:58.578Z,19.45
2023-02-19T13:56:41.300Z,28.15
2023-02-19T13:59:36.201Z,23.77
2023-02-19T14:02:17.541Z,25.10
2023-02-19T14:04:52.046Z,24.17
2023-02-19T14:07:45.648Z,22.48
2023-02-19T14:10:15.860Z,17.98
2023-02-19T14:12:45.120Z,20.55
2023-02-19T14:15:44.176Z,19.40
2023-02-19T14:18:43.660Z,21.30
2023-02-19T14:21:18.512Z,25.80
2023-02-19T14:23:53.621Z,16.92
2023-02-19T14:26:22.467Z,21.25
2023-02-19T14:28:53.733Z,17.05
2023-02-19T14:31:30.629Z,21.05
2023-02-19T14:34:01.668Z,16.20
2023-02-19T14:36:43.967Z,19.25
2023-02-19T14:39:22.416Z,16.00
2023-02-19T14:41:53.505Z,17.00
2023-02-19T14:44:24.945Z,18.73
2023-02-19T14:46:58.052Z,14.23
2023-02-19T14:49:34.214Z,16.02
2023-02-19T14:52:07.480Z,19.50
2023-02-19T14:54:42.046Z,21.90
2023-02-19T14:57:16.990Z,19.10
2023-02-19T14:59:55.446Z,7.85
2023-02-19T15:02:25.872Z,13.60
2023-02-19T15:04:54.167Z,13.80
2023-02-19T15:07:25.472Z,13.48
2023-02-19T15:09:58.629Z,15.73
2023-02-19T15:12:29.841Z,13.15
2023-02-19T15:15:03.640Z,13.60
2023-02-19T15:17:33.976Z,13.40
2023-02-19T15:20:06.267Z,14.45
2023-02-19T15:22:37.294Z,13.85
2023-02-19T15:25:09.573Z,11.73
2023-02-19T15:27:38.719Z,17.85
2023-02-19T15:30:21.799Z,16.83
2023-02-19T15:32:54.506Z,14.18
2023-02-19T15:35:37.990Z,15.43
2023-02-19T15:38:06.772Z,11.80
2023-02-19T15:40:34.746Z,12.02
2023-02-19T15:43:02.824Z,13.57
2023-02-19T15:45:39.214Z,11.68
2023-02-19T15:48:20.562Z,10.68
2023-02-19T15:50:51.694Z,12.27
2023-02-19T15:53:22.694Z,12.90
2023-02-19T15:55:57.939Z,9.60
2023-02-19T15:58:28.607Z,12.02
2023-02-19T16:01:00.793Z,11.35
2023-02-19T16:03:30.735Z,12.45
2023-02-19T16:06:03.244Z,10.90
2023-02-19T16:08:33.244Z,8.38
2023-02-19T16:11:02.731Z,8.15
2023-02-19T16:13:32.629Z,8.25
2023-02-19T16:16:08.034Z,9.50
2023-02-19T16:18:36.767Z,11.80
2023-02-19T16:21:09.040Z,11.13
2023-02-19T16:23:42.343Z,9.95
2023-02-19T16:26:10.600Z,7.60
2023-02-19T16:28:40.158Z,10.13
2023-02-19T16:31:11.755Z,10.27
2023-02-19T16:33:46.916Z,11.77
2023-02-19T16:36:21.575Z,9.82
2023-02-19T16:39:24.250Z,8.23
2023-02-19T16:42:22.542Z,10.90
2023-02-19T16:44:50.461Z,9.68
2023-02-19T16:47:31.904Z,6.18
2023-02-19T16:50:02.953Z,10.77
2023-02-19T16:52:31.209Z,6.85
2023-02-19T16:55:16.210Z,8.27
2023-02-19T16:57:44.330Z,8.43
2023-02-19T17:00:17.822Z,6.90
2023-02-19T17:02:51.776Z,6.88
2023-02-19T17:05:21.203Z,13.07
2023-02-19T17:07:49.671Z,8.30
2023-02-19T17:10:19.246Z,8.90
2023-02-19T17:12:47.314Z,8.13
2023-02-19T17:15:15.501Z,9.30
2023-02-19T17:17:43.598Z,5.65
2023-02-19T17:20:23.959Z,10.60
2023-02-19T17:22:52.038Z,6.45
2023-02-19T17:25:20.037Z,6.43
2023-02-19T17:27:49.796Z,7.43
2023-02-19T17:30:21.716Z,6.88
2023-02-19T17:32:49.740Z,8.73
2023-02-19T17:35:19.169Z,6.30
2023-02-19T17:37:47.189Z,5.30
2023-02-19T17:40:32.126Z,6.70
2023-02-19T17:43:01.173Z,7.38
2023-02-19T17:45:32.507Z,7.57
2023-02-19T17:48:01.286Z,7.15
2023-02-19T17:50:33.205Z,5.55
2023-02-19T17:53:01.154Z,7.60
2023-02-19T17:55:29.408Z,6.90
2023-02-19T17:57:57.815Z,8.85
2023-02-19T18:00:27.862Z,7.97
2023-02-19T18:02:56.653Z,8.15
2023-02-19T18:05:25.803Z,11.75
2023-02-19T18:07:56.758Z,13.20
2023-02-19T18:10:33.234Z,15.30
2023-02-19T18:13:01.303Z,15.73
2023-02-19T18:15:30.591Z,13.60
2023-02-19T18:17:58.943Z,13.95
2023-02-19T18:20:28.662Z,16.65
2023-02-19T18:22:58.393Z,15.60
2023-02-19T18:25:26.553Z,17.67
2023-02-19T18:27:54.703Z,19.23
2023-02-19T18:30:23.814Z,18.17
2023-02-19T18:32:52.259Z,20.60
2023-02-19T18:35:21.348Z,13.43
2023-02-19T18:37:52.265Z,14.55
2023-02-19T18:40:22.608Z,14.63
2023-02-19T18:42:50.558Z,10.48
2023-02-19T18:45:18.745Z,10.85
2023-02-19T18:47:48.407Z,14.35
2023-02-19T18:50:17.800Z,14.27
2023-02-19T18:52:46.065Z,9.63
2023-02-19T18:55:14.254Z,37.88
2023-02-19T18:57:44.072Z,11.10
2023-02-19T19:00:17.116Z,13.88
2023-02-19T19:02:49.700Z,13.35
2023-02-19T19:05:22.551Z,13.10
2023-02-19T19:07:51.048Z,11.35
2023-02-19T19:10:19.693Z,14.27
2023-02-19T19:12:52.480Z,11.85
2023-02-19T19:15:20.760Z,12.68
2023-02-19T19:17:49.395Z,12.23
2023-02-19T19:20:18.912Z,9.57
2023-02-19T19:22:47.098Z,14.90
2023-02-19T19:25:15.267Z,11.95
2023-02-19T19:27:43.241Z,12.75
2023-02-19T19:30:13.944Z,13.70
2023-02-19T19:32:42.225Z,11.60
2023-02-19T19:35:10.940Z,11.63
2023-02-19T19:37:38.954Z,9.57
2023-02-19T19:40:08.497Z,9.27
2023-02-19T19:42:36.498Z,10.30
2023-02-19T19:45:05.265Z,10.25
2023-02-19T19:47:34.689Z,10.38
2023-02-19T19:50:02.680Z,10.77
2023-02-19T19:52:30.728Z,8.05
2023-02-19T19:54:58.685Z,10.00
2023-02-19T19:57:26.734Z,8.93
2023-02-19T19:59:54.767Z,7.70
2023-02-19T20:02:23.665Z,6.10
2023-02-19T20:04:53.053Z,9.00
2023-02-19T20:07:21.047Z,8.70
2023-02-19T20:09:50.017Z,11.18
2023-02-19T20:12:18.262Z,7.72
2023-02-19T20:14:47.260Z,9.88
2023-02-19T20:17:16.053Z,10.43
2023-02-19T20:19:44.059Z,6.95
2023-02-19T20:22:13.401Z,7.72
2023-02-19T20:24:41.489Z,7.72
2023-02-19T20:27:09.513Z,6.75
2023-02-19T20:29:37.576Z,8.50
2023-02-19T20:32:06.005Z,7.25
2023-02-19T20:34:34.028Z,5.90
2023-02-19T20:37:10.990Z,5.25
2023-02-19T20:39:40.397Z,5.57
2023-02-19T20:42:08.399Z,6.93
2023-02-19T20:44:36.419Z,9.73
2023-02-19T20:47:07.062Z,5.85
2023-02-19T20:49:35.200Z,6.53
2023-02-19T20:52:07.947Z,5.85
2023-02-19T20:54:38.278Z,5.60
2023-02-19T20:57:11.291Z,5.45
2023-02-19T20:59:40.671Z,5.47
2023-02-19T21:02:15.196Z,5.40
2023-02-19T21:04:43.887Z,5.68
2023-02-19T21:07:11.922Z,4.75
2023-02-19T21:09:39.977Z,4.68
2023-02-19T21:12:09.749Z,7.07
2023-02-19T21:14:37.719Z,5.95
2023-02-19T21:17:06.461Z,6.13
2023-02-19T21:19:34.571Z,5.90
2023-02-19T21:22:05.703Z,8.88
2023-02-19T21:24:33.710Z,5.75
2023-02-19T21:27:01.716Z,4.00
2023-02-19T21:29:31.052Z,7.78
2023-02-19T21:32:00.001Z,6.85
2023-02-19T21:34:30.383Z,7.55
2023-02-19T21:36:59.732Z,5.97
2023-02-19T21:39:28.414Z,5.50
2023-02-19T21:41:58.485Z,6.07
2023-02-19T21:44:27.103Z,5.00
2023-02-19T21:46:56.329Z,4.75
2023-02-19T21:49:24.260Z,6.85
2023-02-19T21:51:53.280Z,4.30
2023-02-19T21:54:24.582Z,4.25
2023-02-19T21:56:53.602Z,5.70
2023-02-19T21:59:22.745Z,4.30
2023-02-19T22:01:51.437Z,6.22
2023-02-19T22:04:24.421Z,4.18
2023-02-19T22:06:56.034Z,5.50
2023-02-19T22:09:24.018Z,5.72
2023-02-19T22:11:51.903Z,5.78
2023-02-19T22:14:19.881Z,4.13
2023-02-19T22:16:48.011Z,6.32
2023-02-19T22:19:16.401Z,6.60
2023-02-19T22:21:45.988Z,5.03
2023-02-19T22:24:19.014Z,4.95
2023-02-19T22:26:47.500Z,4.90
2023-02-19T22:29:16.679Z,5.05
2023-02-19T22:31:45.088Z,5.63
2023-02-19T22:34:13.639Z,5.68
2023-02-19T22:36:41.525Z,4.85
2023-02-19T22:39:21.890Z,5.63
2023-02-19T22:41:50.031Z,4.38
2023-02-19T22:44:18.169Z,5.65
2023-02-19T22:46:50.858Z,4.78
2023-02-19T22:49:19.608Z,6.88
2023-02-19T22:51:54.621Z,4.97
2023-02-19T22:54:26.853Z,5.13
2023-02-19T22:56:55.061Z,6.35
2023-02-19T22:59:23.805Z,6.43
2023-02-19T23:01:52.336Z,5.70
2023-02-19T23:04:21.252Z,3.83
2023-02-19T23:06:49.323Z,4.70
2023-02-19T23:09:20.355Z,4.55
2023-02-19T23:11:50.003Z,4.57
2023-02-19T23:14:19.912Z,4.25
2023-02-19T23:16:48.216Z,4.32
2023-02-19T23:19:17.101Z,6.20
2023-02-19T23:21:45.999Z,5.10
2023-02-19T23:24:17.515Z,5.85
2023-02-19T23:26:47.411Z,3.60
2023-02-19T23:29:19.213Z,4.10
2023-02-19T23:31:47.634Z,4.55
2023-02-19T23:34:17.260Z,4.53
2023-02-19T23:36:46.494Z,3.42
2023-02-19T23:39:16.341Z,5.35
2023-02-19T23:41:47.540Z,2.47
2023-02-19T23:44:17.130Z,5.32
2023-02-19T23:46:45.206Z,4.70
2023-02-19T23:49:13.602Z,4.20
2023-02-19T23:51:41.668Z,3.80
2023-02-19T23:54:09.850Z,4.25
2023-02-19T23:56:37.917Z,3.78
2023-02-19T23:59:05.875Z,5.13
